Time;durP1;ratioP1;P1;durP2;ratioP2;P2;SDS_P1;SDS_P2;PMS_P1;PMS_P2;Temp;Humidity;BMP_temperature;BMP_pressure;BME280_temperature;BME280_humidity;BME280_pressure;Samples;Min_cycle;Max_cycle;Signal;HPM_P1;HPM_P2
2021/08/22 00:00:06;;;;;;;7.75;6.28;;;18.80;90.90;;;;;;2051234;28;20043;-90
2021/08/22 00:01:06;;;;;;;7.70;6.20;;;18.80;90.90;;;;;;2049599;28;20058;-90
2021/08/22 00:02:07;;;;;;;7.20;5.78;;;18.80;90.90;;;;;;2050141;29;20041;-90
2021/08/22 00:03:08;;;;;;;8.05;6.30;;;18.80;91.00;;;;;;2042161;29;20036;-89
2021/08/22 00:04:09;;;;;;;7.82;6.30;;;18.70;91.00;;;;;;2034084;29;20039;-88
2021/08/22 00:05:09;;;;;;;8.13;6.43;;;18.70;91.00;;;;;;2033869;29;20043;-90
2021/08/22 00:06:10;;;;;;;7.05;6.15;;;18.70;91.00;;;;;;2049582;29;20077;-89
2021/08/22 00:07:11;;;;;;;7.65;6.05;;;18.70;91.00;;;;;;2049696;28;20039;-89
2021/08/22 00:08:12;;;;;;;7.53;6.13;;;18.70;91.00;;;;;;2050186;29;20035;-89
2021/08/22 00:09:13;;;;;;;8.13;6.07;;;18.70;91.10;;;;;;2041047;28;20031;-89
2021/08/22 00:10:14;;;;;;;7.30;6.18;;;18.70;91.10;;;;;;2064210;28;20038;-90
2021/08/22 00:11:14;;;;;;;7.38;5.80;;;18.70;91.10;;;;;;2057907;28;20047;-89
2021/08/22 00:12:15;;;;;;;7.82;6.20;;;18.70;91.10;;;;;;2034384;29;20032;-90
2021/08/22 00:13:16;;;;;;;7.63;6.75;;;18.70;91.10;;;;;;2051033;28;20044;-89
2021/08/22 00:14:17;;;;;;;8.43;6.38;;;18.70;91.10;;;;;;2058330;28;20053;-89
2021/08/22 00:15:18;;;;;;;7.43;6.35;;;18.70;91.20;;;;;;2043818;29;20059;-90
2021/08/22 00:16:19;;;;;;;7.68;6.78;;;18.70;91.10;;;;;;2050448;29;20024;-88
2021/08/22 00:17:20;;;;;;;7.32;6.38;;;18.60;91.10;;;;;;2053825;29;20030;-89
2021/08/22 00:18:20;;;;;;;8.15;6.95;;;18.60;91.10;;;;;;2055854;28;20032;-89
2021/08/22 00:19:21;;;;;;;8.63;6.72;;;18.60;91.20;;;;;;2048050;29;20067;-89
2021/08/22 00:20:22;;;;;;;8.55;6.65;;;18.60;91.20;;;;;;2053042;29;20042;-89
2021/08/22 00:21:23;;;;;;;8.00;6.28;;;18.60;91.30;;;;;;2059343;28;20035;-89
2021/08/22 00:22:24;;;;;;;8.13;6.53;;;18.60;91.30;;;;;;2041919;29;20032;-89
2021/08/22 00:23:25;;;;;;;7.55;6.20;;;18.60;91.40;;;;;;2057780;28;20400;-89
2021/08/22 00:24:25;;;;;;;7.28;6.10;;;18.60;91.40;;;;;;2058392;28;20519;-90
2021/08/22 00:25:26;;;;;;;7.80;6.60;;;18.70;91.40;;;;;;2050450;29;20071;-89
2021/08/22 00:26:27;;;;;;;8.52;6.68;;;18.70;91.30;;;;;;2050002;28;20099;-89
2021/08/22 00:27:27;;;;;;;8.52;6.88;;;18.70;91.30;;;;;;2049573;29;20078;-89
2021/08/22 00:28:29;;;;;;;7.50;6.47;;;18.70;91.20;;;;;;2034290;29;20543;-89
2021/08/22 00:29:29;;;;;;;7.80;6.18;;;18.70;91.20;;;;;;2045403;28;20046;-89
2021/08/22 00:30:30;;;;;;;7.22;5.95;;;18.70;91.20;;;;;;2038186;29;20046;-89
2021/08/22 00:31:31;;;;;;;7.90;6.40;;;18.70;91.30;;;;;;2045593;29;20042;-90
2021/08/22 00:32:31;;;;;;;7.65;6.18;;;18.70;91.30;;;;;;2061614;28;20061;-91
2021/08/22 00:33:32;;;;;;;7.18;5.97;;;18.70;91.30;;;;;;2053253;28;20098;-91
2021/08/22 00:34:33;;;;;;;7.18;6.10;;;18.80;91.40;;;;;;2050139;28;20054;-91
2021/08/22 00:35:33;;;;;;;6.85;6.10;;;18.80;91.40;;;;;;2054493;28;20063;-90
2021/08/22 00:36:34;;;;;;;8.45;6.70;;;18.80;91.30;;;;;;2055151;28;20095;-90
2021/08/22 00:37:35;;;;;;;7.55;6.22;;;18.80;91.30;;;;;;2062472;28;20097;-90
2021/08/22 00:38:35;;;;;;;7.95;6.00;;;18.80;91.30;;;;;;2071385;28;20038;-90
2021/08/22 00:39:36;;;;;;;7.25;6.03;;;18.80;91.30;;;;;;2063130;28;20039;-90
2021/08/22 00:40:37;;;;;;;8.10;6.13;;;18.80;91.30;;;;;;2054491;28;20039;-90
2021/08/22 00:41:39;;;;;;;7.65;6.22;;;18.90;91.30;;;;;;2047504;29;20058;-90
2021/08/22 00:42:40;;;;;;;7.35;5.97;;;18.90;91.30;;;;;;2039731;28;20043;-89
2021/08/22 00:43:45;;;;;;;7.75;6.32;;;18.90;91.30;;;;;;2063756;28;20130;-90
2021/08/22 00:44:45;;;;;;;7.75;6.28;;;18.90;91.30;;;;;;2064925;28;20037;-90
2021/08/22 00:45:47;;;;;;;7.90;6.03;;;18.90;91.30;;;;;;2057032;29;20054;-90
2021/08/22 00:46:52;;;;;;;7.30;6.45;;;18.90;91.60;;;;;;2048069;28;20040;-91
2021/08/22 00:47:55;;;;;;;7.80;6.15;;;18.90;91.30;;;;;;2058356;28;20031;-91
2021/08/22 00:48:56;;;;;;;7.25;6.03;;;18.90;91.30;;;;;;2063818;28;20046;-90
2021/08/22 00:49:58;;;;;;;7.65;6.00;;;18.90;91.30;;;;;;2056767;28;20031;-91
2021/08/22 00:50:59;;;;;;;7.07;6.18;;;18.80;91.30;;;;;;2073865;28;20062;-91
2021/08/22 00:51:59;;;;;;;7.15;6.13;;;18.80;91.30;;;;;;2068018;28;20085;-90
2021/08/22 00:53:05;;;;;;;7.57;6.30;;;18.80;91.40;;;;;;2061698;28;20066;-89
2021/08/22 00:54:07;;;;;;;7.80;6.53;;;18.90;91.40;;;;;;2069659;28;20086;-90
2021/08/22 00:55:09;;;;;;;7.28;6.47;;;18.90;91.40;;;;;;2065185;28;20115;-90
2021/08/22 00:56:10;;;;;;;7.40;6.25;;;18.90;91.40;;;;;;2060844;28;20046;-90
2021/08/22 00:57:12;;;;;;;7.70;6.35;;;18.80;91.70;;;;;;2068562;28;20030;-89
2021/08/22 00:58:13;;;;;;;8.23;6.72;;;18.90;91.50;;;;;;2084920;28;20018;-88
2021/08/22 00:59:18;;;;;;;8.65;6.45;;;18.90;91.50;;;;;;2076908;28;20018;-89
2021/08/22 01:00:19;;;;;;;8.55;6.10;;;18.90;91.50;;;;;;2078757;28;20014;-90
2021/08/22 01:01:25;;;;;;;7.90;6.47;;;18.90;91.40;;;;;;2076154;28;20058;-90
2021/08/22 01:02:33;;;;;;;8.48;6.55;;;18.90;91.40;;;;;;2062255;28;20030;-89
2021/08/22 01:03:59;;;;;;;8.18;6.68;;;18.90;91.40;;;;;;2069532;28;20046;-89
2021/08/22 01:05:18;;;;;;;7.53;6.13;;;18.90;91.40;;;;;;2070504;28;20050;-90
2021/08/22 01:06:44;;;;;;;7.32;5.82;;;18.90;91.40;;;;;;2070903;28;20058;-90
2021/08/22 01:07:55;;;;;;;8.15;6.18;;;19.00;91.40;;;;;;2063467;28;20027;-90
2021/08/22 01:09:02;;;;;;;8.20;6.35;;;18.90;91.40;;;;;;2076214;28;20041;-90
2021/08/22 01:10:07;;;;;;;7.95;6.25;;;19.00;91.40;;;;;;2069394;28;20046;-90
2021/08/22 01:11:17;;;;;;;8.35;6.40;;;18.90;91.60;;;;;;2068887;28;20011;-90
2021/08/22 01:12:27;;;;;;;8.27;6.80;;;19.00;91.40;;;;;;2067821;28;20022;-89
2021/08/22 01:13:34;;;;;;;7.85;6.40;;;19.00;91.40;;;;;;2062145;28;20007;-89
2021/08/22 01:14:39;;;;;;;8.05;6.93;;;19.00;91.40;;;;;;2069937;28;20041;-90
2021/08/22 01:15:44;;;;;;;7.95;6.50;;;19.00;91.40;;;;;;2076999;28;20045;-88
2021/08/22 01:16:49;;;;;;;8.25;6.88;;;19.00;91.40;;;;;;2074939;28;20014;-90
2021/08/22 01:17:52;;;;;;;8.63;7.40;;;19.00;91.40;;;;;;2068854;28;20035;-90
2021/08/22 01:18:57;;;;;;;8.90;7.72;;;19.00;91.70;;;;;;2068345;28;20023;-88
2021/08/22 01:20:01;;;;;;;8.70;7.60;;;19.00;91.40;;;;;;2066898;28;21131;-90
2021/08/22 01:21:18;;;;;;;9.18;7.50;;;19.00;91.70;;;;;;2077226;28;20023;-88
2021/08/22 01:22:21;;;;;;;8.82;7.20;;;19.00;91.40;;;;;;2082263;28;20105;-90
2021/08/22 01:23:23;;;;;;;8.75;7.40;;;19.00;91.40;;;;;;2084153;28;20045;-92
2021/08/22 01:24:25;;;;;;;10.13;7.53;;;19.00;91.40;;;;;;2083836;28;20018;-90
2021/08/22 01:25:27;;;;;;;9.60;7.75;;;19.00;91.40;;;;;;2079888;28;20085;-91
2021/08/22 01:26:37;;;;;;;9.00;7.60;;;19.00;91.40;;;;;;2063304;28;20038;-91
2021/08/22 01:27:40;;;;;;;8.80;7.25;;;19.00;91.40;;;;;;2063271;28;20027;-91
2021/08/22 01:28:43;;;;;;;8.48;7.13;;;19.00;91.40;;;;;;2063924;28;20705;-90
2021/08/22 01:29:57;;;;;;;8.80;7.20;;;19.00;91.40;;;;;;2064884;28;20059;-90
2021/08/22 01:31:04;;;;;;;8.43;6.60;;;19.00;91.40;;;;;;2077026;28;20022;-90
2021/08/22 01:32:07;;;;;;;8.13;6.50;;;19.00;91.40;;;;;;2075538;28;20037;-88
2021/08/22 01:33:16;;;;;;;7.38;6.00;;;19.00;91.40;;;;;;2059975;28;20063;-89
2021/08/22 01:34:18;;;;;;;7.60;6.22;;;19.00;91.40;;;;;;2065936;28;20034;-91
2021/08/22 01:35:23;;;;;;;8.13;6.75;;;19.00;91.40;;;;;;2063304;28;20086;-91
2021/08/22 01:36:25;;;;;;;7.75;6.63;;;19.00;91.40;;;;;;2067888;28;20042;-90
2021/08/22 01:37:26;;;;;;;8.73;6.10;;;19.00;91.40;;;;;;2053019;28;20478;-91
2021/08/22 01:38:28;;;;;;;7.32;6.10;;;19.00;91.40;;;;;;2048303;28;20070;-92
2021/08/22 01:39:31;;;;;;;8.52;5.85;;;19.00;91.40;;;;;;2066998;28;20034;-90
2021/08/22 01:40:34;;;;;;;6.60;5.70;;;19.00;91.40;;;;;;2068886;28;20038;-92
2021/08/22 01:41:35;;;;;;;6.68;5.53;;;18.90;91.40;;;;;;2055163;28;20524;-91
2021/08/22 01:42:38;;;;;;;7.47;5.47;;;18.90;91.40;;;;;;2044285;28;20043;-91
2021/08/22 01:43:40;;;;;;;7.40;5.53;;;19.00;91.50;;;;;;2059947;28;20065;-92
2021/08/22 01:44:43;;;;;;;6.63;5.53;;;19.00;91.50;;;;;;2051255;28;20043;-92
2021/08/22 01:45:45;;;;;;;6.00;4.82;;;18.90;91.50;;;;;;2060560;28;20038;-91
2021/08/22 01:46:47;;;;;;;6.38;4.95;;;18.90;91.50;;;;;;2058557;28;20528;-92
2021/08/22 01:47:49;;;;;;;6.75;5.43;;;19.00;91.50;;;;;;2059237;28;20031;-91
2021/08/22 01:48:52;;;;;;;6.20;4.97;;;18.90;91.50;;;;;;2059194;28;20074;-91
2021/08/22 01:49:54;;;;;;;6.43;5.10;;;19.00;91.50;;;;;;2043567;29;20593;-91
2021/08/22 01:50:59;;;;;;;6.20;4.72;;;18.90;91.50;;;;;;2051794;28;20386;-91
2021/08/22 01:52:00;;;;;;;5.97;5.05;;;18.90;91.50;;;;;;2066070;28;20117;-92
2021/08/22 01:53:04;;;;;;;7.32;5.20;;;18.90;91.50;;;;;;2066600;28;20481;-91
2021/08/22 01:54:07;;;;;;;7.22;4.95;;;18.90;91.50;;;;;;2061405;28;20039;-92
2021/08/22 01:55:09;;;;;;;6.85;5.03;;;18.90;91.50;;;;;;2066620;28;20563;-90
2021/08/22 01:56:09;;;;;;;6.50;4.82;;;18.90;91.50;;;;;;2066459;28;20076;-90
2021/08/22 01:57:10;;;;;;;6.07;4.75;;;18.90;91.50;;;;;;2048632;28;20426;-91
2021/08/22 01:58:11;;;;;;;6.68;4.60;;;18.90;91.50;;;;;;2059016;28;20615;-91
2021/08/22 01:59:11;;;;;;;6.38;4.85;;;18.90;91.50;;;;;;2051198;28;20039;-92
2021/08/22 02:00:13;;;;;;;5.75;4.57;;;18.90;91.50;;;;;;2051193;28;20125;-91
2021/08/22 02:01:14;;;;;;;5.82;4.75;;;18.90;91.50;;;;;;2050883;28;20085;-91
2021/08/22 02:02:15;;;;;;;5.72;4.88;;;18.90;91.40;;;;;;2059023;28;20042;-92
2021/08/22 02:03:25;;;;;;;6.40;4.97;;;18.90;91.50;;;;;;2056658;28;20042;-91
2021/08/22 02:04:35;;;;;;;6.40;5.00;;;18.90;91.50;;;;;;2053722;28;20031;-92
2021/08/22 02:05:37;;;;;;;6.05;4.95;;;18.90;91.50;;;;;;2060403;28;20053;-92
2021/08/22 02:07:14;;;;;;;6.43;5.32;;;18.90;91.50;;;;;;2058728;28;20125;-91
2021/08/22 02:08:18;;;;;;;6.85;5.10;;;18.90;91.50;;;;;;2046745;28;20032;-91
2021/08/22 02:09:38;;;;;;;6.35;4.63;;;18.90;91.50;;;;;;2066130;28;20023;-92
2021/08/22 02:10:49;;;;;;;6.72;5.13;;;18.80;91.40;;;;;;2060445;28;20575;-91
2021/08/22 02:11:57;;;;;;;6.30;5.22;;;18.80;91.50;;;;;;2059440;28;20082;-91
2021/08/22 02:13:01;;;;;;;6.90;5.32;;;18.80;91.50;;;;;;2059820;28;20031;-92
2021/08/22 02:14:02;;;;;;;7.60;5.25;;;18.80;91.50;;;;;;2066502;28;20116;-92
2021/08/22 02:15:11;;;;;;;6.68;5.25;;;18.80;91.50;;;;;;2058954;28;20049;-91
2021/08/22 02:16:17;;;;;;;6.38;5.40;;;18.90;91.50;;;;;;2059622;28;20031;-92
2021/08/22 02:17:20;;;;;;;6.43;5.45;;;18.90;91.50;;;;;;2067469;28;20034;-91
2021/08/22 02:18:22;;;;;;;7.22;5.88;;;18.90;91.50;;;;;;2074731;28;20550;-92
2021/08/22 02:19:24;;;;;;;6.82;5.70;;;18.90;91.50;;;;;;2059473;28;20077;-91
2021/08/22 02:20:26;;;;;;;6.85;5.90;;;18.90;91.50;;;;;;2051668;28;20054;-92
2021/08/22 02:21:27;;;;;;;8.35;6.75;;;18.90;91.50;;;;;;2062404;28;20027;-91
2021/08/22 02:22:29;;;;;;;7.93;6.07;;;18.90;91.50;;;;;;2059105;28;20051;-91
2021/08/22 02:23:30;;;;;;;7.45;5.95;;;18.90;91.50;;;;;;2051984;28;20028;-91
2021/08/22 02:24:31;;;;;;;7.85;6.05;;;18.90;91.50;;;;;;2065388;28;20026;-91
2021/08/22 02:25:32;;;;;;;7.32;6.05;;;18.90;91.50;;;;;;2075504;28;20125;-91
2021/08/22 02:26:34;;;;;;;7.47;6.15;;;18.90;91.50;;;;;;2063816;28;20022;-92
2021/08/22 02:27:37;;;;;;;8.77;6.38;;;18.90;91.50;;;;;;2067645;28;20050;-90
2021/08/22 02:28:38;;;;;;;7.32;6.03;;;18.90;91.50;;;;;;2065943;28;20069;-92
2021/08/22 02:29:50;;;;;;;7.72;6.22;;;18.90;91.50;;;;;;2069216;28;20051;-92
2021/08/22 02:30:51;;;;;;;8.02;5.95;;;18.90;91.50;;;;;;2076354;28;20068;-93
2021/08/22 02:31:52;;;;;;;7.32;6.03;;;18.90;91.50;;;;;;2069825;28;20070;-92
2021/08/22 02:32:54;;;;;;;8.18;6.35;;;18.90;91.50;;;;;;2045850;29;20086;-92
2021/08/22 02:33:59;;;;;;;7.85;6.22;;;18.90;91.50;;;;;;2055136;28;20565;-92
2021/08/22 02:35:01;;;;;;;7.80;6.53;;;18.90;91.50;;;;;;2071498;28;20038;-92
2021/08/22 02:36:03;;;;;;;7.60;6.20;;;18.90;91.50;;;;;;2062099;28;20147;-93
2021/08/22 02:37:04;;;;;;;8.25;6.15;;;18.90;91.50;;;;;;2057392;28;20047;-92
2021/08/22 02:38:05;;;;;;;7.90;6.28;;;18.90;91.50;;;;;;2048273;29;20068;-92
2021/08/22 02:39:05;;;;;;;7.90;6.47;;;18.90;91.50;;;;;;2053352;28;20023;-92
2021/08/22 02:40:07;;;;;;;8.30;6.60;;;18.90;91.50;;;;;;2043400;29;20032;-92
2021/08/22 02:41:08;;;;;;;7.82;6.55;;;18.90;91.50;;;;;;2048409;28;20546;-91
2021/08/22 02:42:08;;;;;;;7.60;6.53;;;18.90;91.50;;;;;;2048950;29;20032;-92
2021/08/22 02:43:09;;;;;;;8.75;7.07;;;18.90;91.50;;;;;;2047074;29;20038;-92
2021/08/22 02:44:10;;;;;;;8.65;6.82;;;18.80;91.50;;;;;;2054642;28;20130;-92
2021/08/22 02:45:11;;;;;;;7.85;6.50;;;18.90;91.50;;;;;;2057244;28;20047;-92
2021/08/22 02:46:12;;;;;;;8.00;6.78;;;18.90;91.50;;;;;;2063903;28;20022;-93
2021/08/22 02:47:14;;;;;;;8.45;7.20;;;18.80;91.50;;;;;;2073653;28;20038;-92
2021/08/22 02:48:15;;;;;;;8.32;7.10;;;18.80;91.60;;;;;;2062667;28;20046;-91
2021/08/22 02:49:15;;;;;;;7.82;6.47;;;18.80;91.60;;;;;;2050259;28;20062;-92
2021/08/22 02:50:16;;;;;;;9.77;7.75;;;18.80;91.60;;;;;;2065426;28;20058;-92
2021/08/22 02:51:17;;;;;;;8.48;7.20;;;18.80;91.60;;;;;;2046166;29;21065;-92
2021/08/22 02:52:17;;;;;;;9.00;7.40;;;18.80;91.60;;;;;;2055223;28;20079;-91
2021/08/22 02:53:18;;;;;;;8.77;7.30;;;18.80;91.60;;;;;;2039707;29;20131;-92
2021/08/22 02:54:19;;;;;;;9.18;7.28;;;18.80;91.60;;;;;;2038361;29;20036;-92
2021/08/22 02:55:19;;;;;;;8.88;7.38;;;18.80;91.60;;;;;;2055003;28;20035;-92
2021/08/22 02:56:21;;;;;;;9.05;6.88;;;18.80;91.60;;;;;;2061627;28;20145;-92
2021/08/22 02:57:22;;;;;;;8.65;7.45;;;18.70;91.60;;;;;;2060658;28;20063;-92
2021/08/22 02:58:23;;;;;;;8.75;7.47;;;18.80;91.60;;;;;;2052578;29;20131;-93
2021/08/22 02:59:25;;;;;;;9.13;7.40;;;18.80;91.60;;;;;;2052662;28;20371;-92
2021/08/22 03:00:26;;;;;;;9.18;7.90;;;18.70;91.60;;;;;;2060417;28;20125;-92
2021/08/22 03:01:27;;;;;;;8.95;7.43;;;18.70;91.60;;;;;;2061428;28;20417;-93
2021/08/22 03:02:27;;;;;;;9.27;7.15;;;18.70;91.50;;;;;;2062644;28;20059;-93
2021/08/22 03:03:28;;;;;;;9.07;7.32;;;18.70;91.50;;;;;;2064171;28;20030;-92
2021/08/22 03:04:29;;;;;;;8.63;6.78;;;18.70;91.60;;;;;;2064949;28;20026;-93
2021/08/22 03:05:30;;;;;;;8.95;7.03;;;18.70;91.60;;;;;;2055375;28;20075;-91
2021/08/22 03:06:31;;;;;;;8.38;7.28;;;18.60;91.60;;;;;;2054866;28;20118;-92
2021/08/22 03:07:31;;;;;;;8.50;7.05;;;18.60;91.60;;;;;;2064243;28;20065;-92
2021/08/22 03:08:32;;;;;;;7.65;6.50;;;18.60;91.60;;;;;;2069723;28;20043;-92
2021/08/22 03:09:33;;;;;;;8.80;6.90;;;18.60;91.60;;;;;;2055934;28;20040;-93
2021/08/22 03:10:34;;;;;;;8.18;6.88;;;18.60;91.60;;;;;;2047942;28;20039;-92
2021/08/22 03:11:34;;;;;;;8.60;6.63;;;18.60;91.60;;;;;;2053525;28;20039;-92
2021/08/22 03:12:35;;;;;;;9.15;6.82;;;18.50;91.60;;;;;;2048748;29;20517;-91
2021/08/22 03:13:36;;;;;;;7.97;6.63;;;18.60;91.70;;;;;;2057442;28;20130;-91
2021/08/22 03:14:37;;;;;;;8.38;6.80;;;18.50;91.60;;;;;;2064159;28;20078;-92
2021/08/22 03:15:38;;;;;;;7.82;6.68;;;18.50;91.60;;;;;;2064217;28;20564;-92
2021/08/22 03:16:38;;;;;;;8.27;6.80;;;18.50;91.60;;;;;;2057428;29;20039;-92
2021/08/22 03:17:39;;;;;;;8.88;6.93;;;18.50;91.60;;;;;;2064555;28;20035;-91
2021/08/22 03:18:40;;;;;;;7.53;6.28;;;18.50;91.70;;;;;;2053735;29;20530;-92
2021/08/22 03:19:41;;;;;;;9.68;6.82;;;18.50;91.70;;;;;;2062266;28;20043;-92
2021/08/22 03:20:41;;;;;;;8.60;6.82;;;18.50;91.70;;;;;;2058371;28;20127;-92
2021/08/22 03:21:45;;;;;;;8.35;6.88;;;18.50;91.70;;;;;;2051195;29;20031;-92
2021/08/22 03:22:45;;;;;;;8.13;6.53;;;18.50;91.70;;;;;;2053681;28;20043;-93
2021/08/22 03:23:46;;;;;;;9.30;6.97;;;18.50;91.70;;;;;;2061117;28;20063;-93
2021/08/22 03:24:47;;;;;;;9.00;7.05;;;18.50;91.70;;;;;;2066761;28;20126;-92
2021/08/22 03:25:48;;;;;;;8.13;6.68;;;18.50;91.70;;;;;;2068361;28;20042;-92
2021/08/22 03:26:48;;;;;;;8.73;7.38;;;18.50;91.70;;;;;;2076996;28;20072;-92
2021/08/22 03:27:49;;;;;;;8.50;6.80;;;18.50;91.70;;;;;;2069072;28;20019;-93
2021/08/22 03:28:51;;;;;;;9.02;6.90;;;18.50;91.70;;;;;;2061858;28;20035;-92
2021/08/22 03:29:51;;;;;;;8.43;6.75;;;18.50;91.70;;;;;;2059592;28;20374;-92
2021/08/22 03:30:53;;;;;;;7.97;6.80;;;18.50;91.70;;;;;;2053488;28;20090;-92
2021/08/22 03:31:53;;;;;;;8.57;6.80;;;18.50;91.70;;;;;;2059321;28;20043;-92
2021/08/22 03:32:54;;;;;;;7.97;6.60;;;18.50;91.70;;;;;;2044839;29;20036;-92
2021/08/22 03:33:55;;;;;;;8.05;6.75;;;18.50;91.70;;;;;;2052735;28;20043;-93
2021/08/22 03:34:59;;;;;;;8.50;6.97;;;18.50;91.70;;;;;;2049718;29;20092;-92
2021/08/22 03:35:59;;;;;;;8.27;7.03;;;18.50;91.70;;;;;;2061221;28;20119;-93
2021/08/22 03:37:00;;;;;;;9.02;7.18;;;18.50;91.70;;;;;;2052139;29;20082;-92
2021/08/22 03:38:01;;;;;;;10.23;7.20;;;18.50;91.70;;;;;;2045202;28;20039;-92
2021/08/22 03:39:01;;;;;;;9.38;7.50;;;18.50;91.70;;;;;;2037282;29;20128;-92
2021/08/22 03:40:02;;;;;;;8.10;6.82;;;18.50;91.70;;;;;;2044409;28;20058;-92
2021/08/22 03:41:03;;;;;;;8.80;7.13;;;18.50;91.70;;;;;;2066962;28;20052;-92
2021/08/22 03:42:05;;;;;;;8.82;7.18;;;18.50;91.70;;;;;;2062600;28;20524;-92
2021/08/22 03:43:06;;;;;;;9.68;7.75;;;18.50;91.70;;;;;;2054657;28;20039;-92
2021/08/22 03:44:08;;;;;;;9.48;7.43;;;18.50;91.70;;;;;;2068125;28;20031;-92
2021/08/22 03:45:10;;;;;;;10.30;7.88;;;18.50;91.70;;;;;;2062647;28;20039;-92
2021/08/22 03:46:10;;;;;;;9.63;7.95;;;18.40;91.70;;;;;;2063764;28;20034;-92
2021/08/22 03:47:11;;;;;;;9.90;7.82;;;18.50;91.70;;;;;;2053929;29;20043;-91
2021/08/22 03:48:12;;;;;;;9.90;7.70;;;18.50;91.70;;;;;;2061020;28;20031;-92
2021/08/22 03:49:12;;;;;;;9.85;7.70;;;18.50;91.70;;;;;;2052276;29;20076;-92
2021/08/22 03:50:13;;;;;;;8.82;7.15;;;18.50;91.70;;;;;;2044742;29;20043;-92
2021/08/22 03:51:14;;;;;;;10.15;7.85;;;18.40;91.70;;;;;;2050223;28;20059;-92
2021/08/22 03:52:14;;;;;;;9.30;7.32;;;18.50;91.70;;;;;;2060953;28;20042;-92
2021/08/22 03:53:15;;;;;;;9.30;7.57;;;18.50;91.70;;;;;;2061405;28;20042;-93
2021/08/22 03:54:16;;;;;;;9.57;7.90;;;18.50;91.70;;;;;;2061072;28;20039;-92
2021/08/22 03:55:16;;;;;;;9.65;7.90;;;18.50;91.70;;;;;;2054997;28;20412;-92
2021/08/22 03:56:17;;;;;;;10.20;7.60;;;18.50;91.70;;;;;;2062899;28;20038;-93
2021/08/22 03:57:18;;;;;;;10.48;8.10;;;18.50;91.70;;;;;;2063556;28;20066;-93
2021/08/22 03:58:18;;;;;;;10.68;8.30;;;18.40;91.70;;;;;;2057866;28;20031;-93
2021/08/22 03:59:19;;;;;;;9.70;7.97;;;18.40;91.60;;;;;;2065363;28;20042;-93
2021/08/22 04:00:20;;;;;;;9.48;8.13;;;18.50;91.70;;;;;;2061606;28;20019;-93
2021/08/22 04:01:21;;;;;;;11.07;8.30;;;18.40;91.70;;;;;;2071098;28;20038;-93
2021/08/22 04:02:23;;;;;;;10.77;8.07;;;18.40;91.70;;;;;;2063071;28;20039;-93
2021/08/22 04:03:24;;;;;;;11.15;8.95;;;18.40;91.70;;;;;;2046721;28;20036;-92
2021/08/22 04:04:24;;;;;;;9.88;8.00;;;18.40;91.70;;;;;;2055085;28;20494;-93
2021/08/22 04:05:25;;;;;;;10.75;8.23;;;18.40;91.70;;;;;;2072557;28;20015;-93
2021/08/22 04:06:26;;;;;;;11.20;8.20;;;18.40;91.70;;;;;;2066312;28;20107;-92
2021/08/22 04:07:28;;;;;;;11.60;8.43;;;18.40;91.70;;;;;;2066937;28;20027;-92
2021/08/22 04:08:31;;;;;;;10.75;8.43;;;18.40;91.70;;;;;;2069342;28;20035;-92
2021/08/22 04:09:32;;;;;;;10.82;8.43;;;18.40;91.70;;;;;;2061136;28;20031;-92
2021/08/22 04:10:33;;;;;;;11.50;8.38;;;18.40;91.70;;;;;;2074145;28;20065;-92
2021/08/22 04:11:33;;;;;;;11.27;8.40;;;18.40;91.70;;;;;;2057702;28;20046;-93
2021/08/22 04:12:36;;;;;;;10.48;8.52;;;18.40;91.70;;;;;;2059158;28;20043;-92
2021/08/22 04:13:36;;;;;;;10.65;8.18;;;18.40;91.70;;;;;;2070974;28;20026;-93
2021/08/22 04:14:38;;;;;;;10.35;8.38;;;18.40;91.70;;;;;;2073988;28;20085;-92
2021/08/22 04:15:39;;;;;;;10.75;8.43;;;18.40;91.70;;;;;;2074114;28;20033;-92
2021/08/22 04:16:39;;;;;;;11.70;8.25;;;18.40;91.70;;;;;;2048366;28;20055;-92
2021/08/22 04:17:40;;;;;;;11.93;8.70;;;18.40;91.70;;;;;;2040030;29;20558;-93
2021/08/22 04:18:41;;;;;;;10.43;8.43;;;18.40;91.70;;;;;;2047332;29;20072;-92
2021/08/22 04:19:41;;;;;;;11.65;8.43;;;18.40;91.70;;;;;;2065433;28;20018;-93
2021/08/22 04:20:42;;;;;;;10.15;8.38;;;18.40;91.70;;;;;;2063631;28;20047;-93
2021/08/22 04:21:43;;;;;;;11.02;8.98;;;18.40;91.70;;;;;;2064371;28;20110;-92
2021/08/22 04:22:43;;;;;;;11.35;8.90;;;18.40;91.70;;;;;;2064309;28;20051;-92
2021/08/22 04:23:44;;;;;;;11.43;9.05;;;18.40;91.70;;;;;;2060961;28;20098;-93
2021/08/22 04:24:45;;;;;;;12.95;9.25;;;18.40;91.70;;;;;;2055635;28;20019;-92
2021/08/22 04:25:46;;;;;;;11.55;8.85;;;18.40;91.70;;;;;;2055310;28;20051;-92
2021/08/22 04:26:48;;;;;;;12.82;9.85;;;18.40;91.70;;;;;;2057549;28;20122;-93
2021/08/22 04:27:48;;;;;;;13.75;10.93;;;18.40;91.70;;;;;;2056390;28;20038;-92
2021/08/22 04:28:49;;;;;;;12.95;10.40;;;18.40;91.70;;;;;;2055055;29;20080;-93
2021/08/22 04:29:50;;;;;;;14.23;10.73;;;18.40;91.70;;;;;;2053664;28;20070;-92
2021/08/22 04:30:50;;;;;;;12.95;10.10;;;18.30;91.70;;;;;;2065905;28;20089;-92
2021/08/22 04:31:51;;;;;;;13.65;10.13;;;18.30;91.70;;;;;;2053690;29;20133;-92
2021/08/22 04:32:52;;;;;;;12.10;9.63;;;18.30;91.70;;;;;;2053304;28;20047;-93
2021/08/22 04:33:53;;;;;;;12.63;9.75;;;18.30;91.70;;;;;;2053350;28;20283;-93
2021/08/22 04:34:55;;;;;;;14.20;10.90;;;18.30;91.70;;;;;;2038222;29;20118;-92
2021/08/22 04:35:56;;;;;;;13.48;10.70;;;18.30;91.70;;;;;;2052141;28;20031;-92
2021/08/22 04:36:57;;;;;;;13.50;10.60;;;18.30;91.70;;;;;;2076708;28;20128;-91
2021/08/22 04:37:57;;;;;;;14.45;11.05;;;18.30;91.70;;;;;;2064434;28;20091;-92
2021/08/22 04:38:58;;;;;;;13.95;10.70;;;18.30;91.70;;;;;;2065859;28;20089;-91
2021/08/22 04:39:59;;;;;;;13.80;11.13;;;18.30;91.70;;;;;;2060923;28;20045;-92
2021/08/22 04:40:59;;;;;;;12.95;10.43;;;18.30;91.70;;;;;;2053771;28;20067;-93
2021/08/22 04:42:00;;;;;;;14.88;10.40;;;18.30;91.70;;;;;;2052618;28;20059;-92
2021/08/22 04:43:01;;;;;;;13.05;10.10;;;18.30;91.70;;;;;;2067366;28;20117;-92
2021/08/22 04:44:02;;;;;;;13.80;10.98;;;18.20;91.70;;;;;;2060964;28;20035;-92
2021/08/22 04:45:03;;;;;;;13.95;10.88;;;18.30;91.70;;;;;;2051305;28;20036;-91
2021/08/22 04:46:03;;;;;;;14.90;11.00;;;18.20;91.70;;;;;;2060121;28;20089;-93
2021/08/22 04:47:05;;;;;;;14.32;10.93;;;18.30;91.70;;;;;;2050744;29;20047;-92
2021/08/22 04:48:06;;;;;;;13.05;10.45;;;18.20;91.70;;;;;;2044976;28;20071;-92
2021/08/22 04:49:06;;;;;;;13.23;9.95;;;18.20;91.70;;;;;;2050023;29;20082;-92
2021/08/22 04:50:08;;;;;;;12.60;9.88;;;18.20;91.70;;;;;;2047368;28;20472;-92
2021/08/22 04:51:09;;;;;;;13.20;9.98;;;18.20;91.70;;;;;;2050536;28;20525;-93
2021/08/22 04:52:10;;;;;;;13.95;10.45;;;18.20;91.70;;;;;;2051536;28;20039;-93
2021/08/22 04:53:11;;;;;;;13.18;10.40;;;18.20;91.70;;;;;;2047781;29;20055;-92
2021/08/22 04:54:12;;;;;;;14.13;10.68;;;18.20;91.70;;;;;;2043454;28;20486;-93
2021/08/22 04:55:13;;;;;;;13.95;10.27;;;18.20;91.70;;;;;;2043161;29;20071;-92
2021/08/22 04:56:14;;;;;;;13.45;10.02;;;18.20;92.00;;;;;;2043178;28;20023;-91
2021/08/22 04:57:14;;;;;;;14.05;10.73;;;18.20;91.70;;;;;;2050819;28;20090;-93
2021/08/22 04:58:15;;;;;;;12.55;9.75;;;18.20;91.70;;;;;;2035759;29;20039;-92
2021/08/22 04:59:16;;;;;;;15.95;10.85;;;18.20;91.70;;;;;;2050760;29;20035;-92
2021/08/22 05:00:17;;;;;;;14.82;11.05;;;18.20;92.00;;;;;;2065437;28;20397;-92
2021/08/22 05:01:18;;;;;;;13.48;10.85;;;18.20;91.70;;;;;;2058973;28;20047;-93
2021/08/22 05:02:19;;;;;;;16.35;11.70;;;18.20;91.70;;;;;;2058851;28;20041;-92
2021/08/22 05:03:19;;;;;;;14.27;10.88;;;18.20;91.70;;;;;;2066090;28;20230;-93
2021/08/22 05:04:20;;;;;;;13.55;10.95;;;18.20;91.70;;;;;;2058967;28;20035;-92
2021/08/22 05:05:21;;;;;;;13.75;10.48;;;18.20;91.70;;;;;;2045573;28;20087;-93
2021/08/22 05:06:21;;;;;;;13.10;10.50;;;18.20;91.80;;;;;;2051003;28;20039;-93
2021/08/22 05:07:22;;;;;;;13.52;10.15;;;18.20;91.80;;;;;;2051023;28;20043;-93
2021/08/22 05:08:23;;;;;;;13.93;10.82;;;18.20;91.80;;;;;;2059125;28;20177;-93
2021/08/22 05:09:24;;;;;;;14.50;11.18;;;18.20;91.80;;;;;;2050793;29;20050;-93
2021/08/22 05:10:25;;;;;;;13.57;10.57;;;18.20;91.70;;;;;;2066742;28;20039;-93
2021/08/22 05:11:25;;;;;;;13.93;10.57;;;18.20;91.70;;;;;;2074978;28;20128;-93
2021/08/22 05:12:26;;;;;;;14.07;10.05;;;18.20;91.70;;;;;;2067857;28;20038;-93
2021/08/22 05:13:27;;;;;;;13.18;10.27;;;18.20;91.70;;;;;;2075565;28;20578;-90
2021/08/22 05:14:35;;;;;;;13.75;10.52;;;18.20;91.70;;;;;;2060781;28;20055;-92
2021/08/22 05:15:35;;;;;;;15.25;10.32;;;18.20;91.70;;;;;;2058847;28;20019;-89
2021/08/22 05:16:36;;;;;;;14.02;10.70;;;18.20;91.70;;;;;;2060190;28;20050;-92
2021/08/22 05:17:37;;;;;;;15.38;11.07;;;18.20;91.70;;;;;;2061210;28;20026;-89
2021/08/22 05:18:37;;;;;;;14.55;10.68;;;18.30;91.70;;;;;;2065942;28;20116;-93
2021/08/22 05:19:38;;;;;;;14.27;11.07;;;18.20;91.70;;;;;;2067804;28;20038;-92
2021/08/22 05:20:39;;;;;;;14.82;11.00;;;18.30;91.70;;;;;;2059876;28;20019;-93
2021/08/22 05:21:40;;;;;;;14.65;11.32;;;18.30;91.70;;;;;;2068102;28;20019;-90